createdAt,value
2017-12-27T00:00:57.192Z,94.18
2017-12-27T00:01:57.127Z,94.18
2017-12-27T00:02:57.059Z,93.70
2017-12-27T00:03:56.997Z,93.61
2017-12-27T00:04:56.932Z,93.99
2017-12-27T00:05:56.867Z,93.70
2017-12-27T00:06:56.807Z,93.80
2017-12-27T00:07:56.738Z,93.51
2017-12-27T00:08:56.678Z,93.32
2017-12-27T00:09:56.613Z,93.42
2017-12-27T00:10:56.544Z,93.61
2017-12-27T00:11:56.478Z,93.70
2017-12-27T00:12:56.416Z,93.04
2017-12-27T00:13:56.349Z,93.51
2017-12-27T00:14:56.283Z,93.42
2017-12-27T00:15:56.221Z,93.32
2017-12-27T00:16:56.155Z,93.61
2017-12-27T00:17:56.094Z,93.70
2017-12-27T00:18:56.028Z,93.61
2017-12-27T00:19:55.961Z,93.61
2017-12-27T00:20:55.898Z,93.61
2017-12-27T00:21:55.832Z,93.99
2017-12-27T00:22:55.770Z,94.56
2017-12-27T00:23:55.703Z,94.74
2017-12-27T00:24:55.637Z,94.46
2017-12-27T00:25:55.574Z,94.46
2017-12-27T00:26:55.508Z,94.60
2017-12-27T00:27:55.442Z,94.74
2017-12-27T00:28:55.382Z,94.74
2017-12-27T00:29:55.320Z,94.84
2017-12-27T00:30:55.249Z,94.56
2017-12-27T00:31:55.187Z,94.74
2017-12-27T00:32:55.123Z,94.70
2017-12-27T00:33:55.056Z,94.60
2017-12-27T00:34:54.991Z,94.42
2017-12-27T00:35:54.926Z,95.17
2017-12-27T00:36:54.864Z,94.98
2017-12-27T00:37:54.798Z,94.70
2017-12-27T00:38:54.733Z,95.17
2017-12-27T00:39:54.669Z,95.26
2017-12-27T00:40:54.606Z,95.83
2017-12-27T00:41:54.542Z,95.83
2017-12-27T00:42:54.473Z,95.64
2017-12-27T00:43:54.411Z,95.45
2017-12-27T00:44:54.344Z,95.64
2017-12-27T00:45:54.280Z,95.74
2017-12-27T00:46:54.212Z,95.93
2017-12-27T00:47:54.149Z,95.93
2017-12-27T00:48:54.086Z,95.93
2017-12-27T00:49:54.019Z,95.55
2017-12-27T00:50:53.955Z,95.55
2017-12-27T00:51:53.888Z,95.74
2017-12-27T00:52:53.826Z,95.74
2017-12-27T00:53:53.758Z,95.36
2017-12-27T00:54:53.694Z,95.26
2017-12-27T00:55:53.631Z,95.17
2017-12-27T00:56:53.566Z,94.60
2017-12-27T00:57:53.501Z,95.17
2017-12-27T00:58:53.435Z,94.60
2017-12-27T00:59:53.370Z,94.13
2017-12-27T01:00:53.306Z,94.79
2017-12-27T01:01:53.240Z,94.51
2017-12-27T01:02:53.174Z,94.32
2017-12-27T01:03:53.109Z,94.70
2017-12-27T01:04:53.048Z,94.70
2017-12-27T01:05:52.981Z,94.70
2017-12-27T01:06:52.914Z,94.89
2017-12-27T01:07:52.849Z,94.51
2017-12-27T01:08:52.785Z,94.98
2017-12-27T01:09:52.720Z,95.07
2017-12-27T01:10:52.661Z,95.26
2017-12-27T01:11:52.590Z,95.26
2017-12-27T01:12:52.525Z,95.45
2017-12-27T01:13:52.460Z,95.36
2017-12-27T01:14:52.397Z,95.74
2017-12-27T01:15:52.328Z,95.17
2017-12-27T01:16:52.265Z,96.02
2017-12-27T01:17:52.199Z,95.64
2017-12-27T01:18:52.135Z,95.83
2017-12-27T01:19:52.070Z,95.64
2017-12-27T01:20:52.007Z,96.02
2017-12-27T01:21:51.939Z,95.83
2017-12-27T01:22:51.874Z,95.17
2017-12-27T01:23:51.811Z,94.89
2017-12-27T01:24:51.743Z,95.07
2017-12-27T01:25:51.681Z,94.51
2017-12-27T01:26:51.621Z,95.07
2017-12-27T01:27:51.549Z,95.07
2017-12-27T01:28:51.484Z,95.36
2017-12-27T01:29:51.423Z,95.07
2017-12-27T01:30:51.353Z,95.64
2017-12-27T01:31:51.289Z,95.64
2017-12-27T01:32:51.224Z,95.74
2017-12-27T01:33:51.159Z,96.31
2017-12-27T01:34:51.097Z,96.12
2017-12-27T01:35:51.029Z,95.55
2017-12-27T01:36:50.965Z,95.74
2017-12-27T01:37:50.898Z,95.26
2017-12-27T01:38:50.840Z,95.55
2017-12-27T01:39:50.767Z,95.64
2017-12-27T01:40:50.704Z,95.36
2017-12-27T01:41:50.643Z,94.89
2017-12-27T01:42:50.572Z,95.17
2017-12-27T01:43:50.509Z,94.89
2017-12-27T01:44:50.445Z,94.51
2017-12-27T01:45:50.376Z,94.70
2017-12-27T01:46:50.313Z,94.89
2017-12-27T01:47:50.251Z,94.70
2017-12-27T01:48:50.182Z,95.17
2017-12-27T01:49:50.115Z,95.83
2017-12-27T01:50:50.053Z,95.17
2017-12-27T01:51:49.988Z,95.26
2017-12-27T01:52:49.921Z,95.55
2017-12-27T01:53:49.856Z,95.26
2017-12-27T01:54:49.790Z,95.26
2017-12-27T01:55:49.725Z,95.45
2017-12-27T01:56:49.661Z,95.26
2017-12-27T01:57:49.595Z,96.12
2017-12-27T01:58:49.530Z,95.26
2017-12-27T01:59:49.463Z,95.17
2017-12-27T02:00:49.400Z,95.17
2017-12-27T02:01:49.336Z,94.89
2017-12-27T02:02:49.272Z,94.98
2017-12-27T02:03:49.206Z,94.51
2017-12-27T02:04:49.140Z,94.89
2017-12-27T02:05:49.071Z,94.51
2017-12-27T02:06:49.006Z,94.89
2017-12-27T02:07:48.943Z,95.93
2017-12-27T02:08:48.876Z,95.17
2017-12-27T02:09:48.810Z,95.64
2017-12-27T02:10:48.745Z,95.17
2017-12-27T02:11:48.683Z,95.36
2017-12-27T02:12:48.614Z,95.36
2017-12-27T02:13:48.551Z,95.36
2017-12-27T02:14:48.481Z,95.45
2017-12-27T02:15:48.419Z,95.36
2017-12-27T02:16:48.362Z,95.45
2017-12-27T02:17:48.289Z,95.55
2017-12-27T02:18:48.222Z,95.07
2017-12-27T02:19:48.160Z,95.55
2017-12-27T02:20:48.094Z,95.36
2017-12-27T02:21:48.027Z,96.12
2017-12-27T02:22:47.962Z,95.36
2017-12-27T02:23:47.896Z,94.89
2017-12-27T02:24:47.829Z,95.07
2017-12-27T02:25:47.764Z,94.70
2017-12-27T02:26:47.700Z,94.89
2017-12-27T02:27:47.633Z,94.89
2017-12-27T02:28:47.569Z,94.89
2017-12-27T02:29:47.503Z,95.83
2017-12-27T02:30:47.439Z,95.45
2017-12-27T02:31:47.384Z,95.36
2017-12-27T02:32:47.310Z,95.17
2017-12-27T02:33:47.242Z,95.26
2017-12-27T02:34:47.179Z,95.36
2017-12-27T02:35:47.111Z,95.17
2017-12-27T02:36:47.048Z,95.64
2017-12-27T02:37:46.980Z,95.83
2017-12-27T02:38:46.913Z,95.26
2017-12-27T02:39:46.850Z,96.02
2017-12-27T02:40:46.785Z,95.55
2017-12-27T02:41:46.718Z,95.36
2017-12-27T02:42:46.651Z,95.26
2017-12-27T02:43:46.586Z,95.17
2017-12-27T02:44:46.522Z,95.64
2017-12-27T02:45:46.460Z,95.55
2017-12-27T02:46:46.392Z,95.45
2017-12-27T02:47:46.325Z,95.17
2017-12-27T02:48:46.265Z,95.07
2017-12-27T02:49:46.198Z,95.26
2017-12-27T02:50:46.130Z,96.02
2017-12-27T02:51:46.067Z,95.36
2017-12-27T02:52:46.004Z,95.45
2017-12-27T02:53:45.934Z,95.26
2017-12-27T02:54:45.869Z,95.45
2017-12-27T02:55:45.805Z,95.55
2017-12-27T02:56:45.739Z,95.55
2017-12-27T02:57:45.675Z,95.74
2017-12-27T02:58:45.608Z,94.79
2017-12-27T02:59:45.543Z,94.70
2017-12-27T03:00:45.480Z,94.89
2017-12-27T03:01:45.414Z,94.98
2017-12-27T03:02:45.346Z,95.45
2017-12-27T03:03:45.281Z,94.89
2017-12-27T03:04:45.219Z,95.64
2017-12-27T03:05:45.154Z,95.36
2017-12-27T03:06:45.091Z,95.36
2017-12-27T03:07:45.021Z,95.64
2017-12-27T03:08:44.957Z,96.07
2017-12-27T03:09:44.891Z,96.12
2017-12-27T03:10:44.825Z,96.12
2017-12-27T03:11:44.760Z,95.83
2017-12-27T03:12:44.696Z,95.88
2017-12-27T03:13:44.632Z,96.35
2017-12-27T03:14:44.566Z,96.64
2017-12-27T03:15:44.501Z,96.64
2017-12-27T03:16:44.436Z,96.35
2017-12-27T03:17:44.372Z,96.69
2017-12-27T03:18:44.304Z,96.21
2017-12-27T03:19:44.240Z,95.93
2017-12-27T03:20:44.174Z,96.07
2017-12-27T03:21:44.111Z,96.07
2017-12-27T03:22:44.047Z,95.93
2017-12-27T03:23:43.979Z,95.88
2017-12-27T03:24:43.909Z,95.97
2017-12-27T03:25:43.848Z,96.02
2017-12-27T03:26:43.785Z,96.07
2017-12-27T03:27:43.717Z,95.88
2017-12-27T03:28:43.652Z,95.88
2017-12-27T03:29:43.588Z,95.88
2017-12-27T03:30:43.522Z,95.88
2017-12-27T03:31:43.460Z,96.07
2017-12-27T03:32:43.390Z,96.21
2017-12-27T03:33:43.328Z,96.12
2017-12-27T03:34:43.258Z,95.74
2017-12-27T03:35:43.195Z,96.07
2017-12-27T03:36:43.131Z,96.07
2017-12-27T03:37:43.064Z,96.26
2017-12-27T03:38:43.000Z,96.31
2017-12-27T03:39:42.932Z,95.74
2017-12-27T03:40:42.867Z,95.83
2017-12-27T03:41:42.803Z,95.69
2017-12-27T03:42:42.738Z,95.50
2017-12-27T03:43:42.672Z,95.69
2017-12-27T03:44:42.607Z,95.69
2017-12-27T03:45:42.541Z,95.59
2017-12-27T03:46:42.477Z,95.50
2017-12-27T03:47:42.411Z,96.16
2017-12-27T03:48:42.346Z,95.97
2017-12-27T03:49:42.279Z,96.26
2017-12-27T03:50:42.216Z,95.97
2017-12-27T03:51:42.154Z,95.97
2017-12-27T03:52:42.084Z,96.35
2017-12-27T03:53:42.019Z,96.26
2017-12-27T03:54:41.954Z,95.88
2017-12-27T03:55:41.889Z,96.26
2017-12-27T03:56:41.825Z,96.26
2017-12-27T03:57:41.760Z,96.35
2017-12-27T03:58:41.693Z,96.26
2017-12-27T03:59:41.629Z,95.88
2017-12-27T04:00:41.563Z,95.88
2017-12-27T04:01:41.502Z,96.07
2017-12-27T04:02:41.430Z,95.88
2017-12-27T04:03:41.366Z,96.26
2017-12-27T04:04:41.304Z,95.97
2017-12-27T04:05:41.239Z,96.07
2017-12-27T04:06:41.170Z,96.45
2017-12-27T04:07:41.104Z,95.93
2017-12-27T04:08:41.043Z,95.78
2017-12-27T04:09:40.977Z,95.74
2017-12-27T04:10:40.911Z,96.92
2017-12-27T04:11:40.848Z,96.64
2017-12-27T04:12:40.779Z,96.35
2017-12-27T04:13:40.715Z,96.35
2017-12-27T04:14:40.651Z,96.45
2017-12-27T04:15:40.584Z,96.35
2017-12-27T04:16:40.518Z,96.31
2017-12-27T04:17:40.455Z,95.97
2017-12-27T04:18:40.389Z,95.93
2017-12-27T04:19:40.327Z,95.78
2017-12-27T04:20:40.259Z,96.26
2017-12-27T04:21:40.196Z,95.07
2017-12-27T04:22:40.129Z,95.03
2017-12-27T04:23:40.067Z,95.59
2017-12-27T04:24:40.000Z,95.21
2017-12-27T04:25:39.933Z,95.40
2017-12-27T04:26:39.868Z,95.17
2017-12-27T04:27:39.804Z,95.21
2017-12-27T04:28:39.738Z,95.26
2017-12-27T04:29:39.675Z,95.17
2017-12-27T04:30:39.608Z,95.17
2017-12-27T04:31:39.544Z,95.12
2017-12-27T04:32:39.480Z,95.03
2017-12-27T04:33:39.416Z,95.12
2017-12-27T04:34:39.346Z,94.70
2017-12-27T04:35:39.282Z,94.70
2017-12-27T04:36:39.217Z,95.17
2017-12-27T04:37:39.152Z,95.07
2017-12-27T04:38:39.085Z,94.65
2017-12-27T04:39:39.021Z,94.65
2017-12-27T04:40:38.957Z,94.74
2017-12-27T04:41:38.892Z,94.98
2017-12-27T04:42:38.828Z,94.84
2017-12-27T04:43:38.762Z,95.12
2017-12-27T04:44:38.696Z,94.46
2017-12-27T04:45:38.630Z,94.70
2017-12-27T04:46:38.568Z,94.74
2017-12-27T04:47:38.500Z,94.89
2017-12-27T04:48:38.437Z,94.84
2017-12-27T04:49:38.368Z,95.12
2017-12-27T04:50:38.307Z,95.83
2017-12-27T04:51:38.239Z,95.17
2017-12-27T04:52:38.175Z,95.36
2017-12-27T04:53:38.113Z,95.78
2017-12-27T04:54:38.043Z,94.93
2017-12-27T04:55:37.979Z,95.26
2017-12-27T04:56:37.914Z,95.26
2017-12-27T04:57:37.849Z,94.89
2017-12-27T04:58:37.783Z,94.98
2017-12-27T04:59:37.720Z,94.70
2017-12-27T05:00:37.655Z,94.60
2017-12-27T05:01:37.592Z,94.42
2017-12-27T05:02:37.523Z,94.79
2017-12-27T05:03:37.458Z,94.89
2017-12-27T05:04:37.392Z,94.13
2017-12-27T05:05:37.328Z,94.42
2017-12-27T05:06:37.262Z,94.70
2017-12-27T05:07:37.198Z,94.60
2017-12-27T05:08:37.131Z,95.17
2017-12-27T05:09:37.067Z,95.45
2017-12-27T05:10:37.000Z,95.26
2017-12-27T05:11:36.935Z,95.26
2017-12-27T05:12:36.869Z,95.36
2017-12-27T05:13:36.806Z,95.55
2017-12-27T05:14:36.739Z,95.64
2017-12-27T05:15:36.675Z,95.17
2017-12-27T05:16:36.614Z,95.17
2017-12-27T05:17:36.549Z,94.89
2017-12-27T05:18:36.482Z,94.79
2017-12-27T05:19:36.417Z,94.79
2017-12-27T05:20:36.349Z,94.70
2017-12-27T05:21:36.282Z,95.07
2017-12-27T05:22:36.217Z,94.89
2017-12-27T05:23:36.153Z,94.89
2017-12-27T05:24:36.087Z,94.98
2017-12-27T05:25:36.035Z,94.51
2017-12-27T05:26:35.957Z,95.36
2017-12-27T05:27:35.890Z,95.36
2017-12-27T05:28:35.826Z,95.26
2017-12-27T05:29:35.762Z,94.79
2017-12-27T05:30:35.696Z,94.79
2017-12-27T05:31:35.630Z,95.17
2017-12-27T05:32:35.566Z,95.17
2017-12-27T05:33:35.505Z,94.89
2017-12-27T05:34:35.439Z,95.07
2017-12-27T05:35:35.373Z,95.45
2017-12-27T05:36:35.305Z,95.64
2017-12-27T05:37:35.243Z,95.64
2017-12-27T05:38:35.180Z,95.45
2017-12-27T05:39:35.114Z,95.26
2017-12-27T05:40:35.047Z,95.36
2017-12-27T05:41:34.984Z,95.55
2017-12-27T05:42:34.920Z,95.55
2017-12-27T05:43:34.853Z,95.64
2017-12-27T05:44:34.786Z,95.93
2017-12-27T05:45:34.723Z,96.02
2017-12-27T05:46:34.656Z,96.12
2017-12-27T05:47:34.592Z,96.02
2017-12-27T05:48:34.529Z,96.21
2017-12-27T05:49:34.463Z,96.02
2017-12-27T05:50:34.396Z,96.12
2017-12-27T05:51:34.333Z,95.93
2017-12-27T05:52:34.269Z,96.12
2017-12-27T05:53:34.203Z,96.12
2017-12-27T05:54:34.137Z,95.93
2017-12-27T05:55:34.075Z,96.12
2017-12-27T05:56:34.009Z,95.83
2017-12-27T05:57:33.944Z,95.83
2017-12-27T05:58:33.878Z,96.31
2017-12-27T05:59:33.815Z,95.74
2017-12-27T06:00:33.749Z,95.36
2017-12-27T06:01:33.684Z,95.55
2017-12-27T06:02:33.618Z,94.89
2017-12-27T06:03:33.556Z,94.51
2017-12-27T06:04:33.490Z,94.70
2017-12-27T06:05:33.424Z,94.32
2017-12-27T06:06:33.356Z,94.89
2017-12-27T06:07:33.294Z,94.51
2017-12-27T06:08:33.230Z,94.04
2017-12-27T06:09:33.163Z,93.56
2017-12-27T06:10:33.097Z,93.75
2017-12-27T06:11:33.033Z,94.23
2017-12-27T06:12:32.969Z,94.32
2017-12-27T06:13:32.904Z,93.75
2017-12-27T06:14:32.837Z,93.75
2017-12-27T06:15:32.774Z,93.37
2017-12-27T06:16:32.711Z,93.47
2017-12-27T06:17:32.643Z,93.28
2017-12-27T06:18:32.577Z,93.51
2017-12-27T06:19:32.512Z,93.23
2017-12-27T06:20:32.451Z,92.85
2017-12-27T06:21:32.384Z,92.94
2017-12-27T06:22:32.317Z,92.00
2017-12-27T06:23:32.252Z,92.24
2017-12-27T06:24:32.188Z,92.14
2017-12-27T06:25:32.125Z,92.33
2017-12-27T06:26:32.055Z,92.66
2017-12-27T06:27:31.993Z,92.76
2017-12-27T06:28:31.926Z,92.76
2017-12-27T06:29:31.861Z,92.90
2017-12-27T06:30:31.797Z,93.23
2017-12-27T06:31:31.731Z,92.05
2017-12-27T06:32:31.668Z,92.05
2017-12-27T06:33:31.601Z,92.19
2017-12-27T06:34:31.537Z,92.43
2017-12-27T06:35:31.472Z,92.38
2017-12-27T06:36:31.411Z,92.99
2017-12-27T06:37:31.344Z,93.56
2017-12-27T06:38:31.276Z,93.09
2017-12-27T06:39:31.212Z,93.28
2017-12-27T06:40:31.149Z,93.94
2017-12-27T06:41:31.086Z,93.75
2017-12-27T06:42:31.020Z,93.28
2017-12-27T06:43:30.954Z,93.18
2017-12-27T06:44:30.892Z,93.37
2017-12-27T06:45:30.824Z,93.18
2017-12-27T06:46:30.759Z,93.18
2017-12-27T06:47:30.724Z,93.56
2017-12-27T06:48:30.629Z,93.18
2017-12-27T06:49:30.565Z,93.09
2017-12-27T06:50:30.500Z,92.80
2017-12-27T06:51:30.434Z,93.13
2017-12-27T06:52:30.370Z,92.85
2017-12-27T06:53:30.307Z,92.38
2017-12-27T06:54:30.241Z,93.23
2017-12-27T06:55:30.178Z,93.13
2017-12-27T06:56:30.113Z,93.04
2017-12-27T06:57:30.047Z,93.04
2017-12-27T06:58:29.983Z,92.85
2017-12-27T06:59:29.919Z,93.04
2017-12-27T07:00:29.860Z,92.29
2017-12-27T07:01:29.794Z,92.38
2017-12-27T07:02:29.724Z,92.66
2017-12-27T07:03:29.660Z,92.38
2017-12-27T07:04:29.595Z,92.66
2017-12-27T07:05:29.528Z,92.66
2017-12-27T07:06:29.464Z,92.47
2017-12-27T07:07:29.402Z,92.57
2017-12-27T07:08:29.338Z,93.23
2017-12-27T07:09:29.271Z,92.66
2017-12-27T07:10:29.210Z,92.85
2017-12-27T07:11:29.143Z,92.19
2017-12-27T07:12:29.078Z,92.00
2017-12-27T07:13:29.008Z,91.72
2017-12-27T07:14:28.947Z,92.00
2017-12-27T07:15:28.882Z,91.53
2017-12-27T07:16:28.820Z,91.62
2017-12-27T07:17:28.758Z,91.72
2017-12-27T07:18:28.690Z,92.00
2017-12-27T07:19:28.624Z,92.38
2017-12-27T07:20:28.560Z,92.29
2017-12-27T07:21:28.530Z,92.38
2017-12-27T07:22:28.434Z,92.47
2017-12-27T07:23:28.365Z,92.29
2017-12-27T07:24:28.303Z,93.13
2017-12-27T07:25:28.238Z,93.04
2017-12-27T07:26:28.173Z,92.76
2017-12-27T07:27:28.107Z,93.04
2017-12-27T07:28:28.044Z,93.51
2017-12-27T07:29:27.980Z,93.42
2017-12-27T07:30:27.915Z,93.70
2017-12-27T07:31:27.849Z,93.42
2017-12-27T07:32:27.784Z,93.32
2017-12-27T07:33:27.719Z,93.51
2017-12-27T07:34:27.656Z,92.94
2017-12-27T07:35:27.594Z,93.23
2017-12-27T07:36:27.527Z,93.61
2017-12-27T07:37:27.462Z,93.42
2017-12-27T07:38:27.397Z,93.32
2017-12-27T07:39:27.333Z,93.80
2017-12-27T07:40:27.271Z,92.85
2017-12-27T07:41:27.205Z,93.04
2017-12-27T07:42:27.141Z,93.04
2017-12-27T07:43:27.079Z,93.13
2017-12-27T07:44:27.017Z,93.23
2017-12-27T07:45:26.945Z,92.47
2017-12-27T07:46:26.880Z,92.19
2017-12-27T07:47:26.816Z,92.38
2017-12-27T07:48:26.780Z,91.72
2017-12-27T07:49:26.688Z,91.91
2017-12-27T07:50:26.627Z,91.62
2017-12-27T07:51:26.560Z,91.72
2017-12-27T07:52:26.495Z,91.81
2017-12-27T07:53:26.432Z,91.72
2017-12-27T07:54:26.375Z,91.72
2017-12-27T07:55:26.303Z,91.91
2017-12-27T07:56:26.238Z,92.10
2017-12-27T07:57:26.174Z,91.91
2017-12-27T07:58:26.111Z,91.62
2017-12-27T07:59:26.044Z,91.10
2017-12-27T08:00:25.980Z,90.77
2017-12-27T08:01:25.914Z,90.96
2017-12-27T08:02:25.850Z,91.53
2017-12-27T08:03:25.788Z,91.24
2017-12-27T08:04:25.721Z,91.43
2017-12-27T08:05:25.659Z,91.05
2017-12-27T08:06:25.592Z,91.10
2017-12-27T08:07:25.528Z,91.00
2017-12-27T08:08:25.465Z,90.63
2017-12-27T08:09:25.399Z,90.63
2017-12-27T08:10:25.334Z,90.34
2017-12-27T08:11:25.274Z,90.34
2017-12-27T08:12:25.207Z,90.91
2017-12-27T08:13:25.142Z,90.53
2017-12-27T08:14:25.084Z,91.00
2017-12-27T08:15:25.018Z,91.10
2017-12-27T08:16:24.951Z,91.10
2017-12-27T08:17:24.884Z,91.00
2017-12-27T08:18:24.821Z,91.48
2017-12-27T08:19:24.755Z,91.10
2017-12-27T08:20:24.692Z,91.10
2017-12-27T08:21:24.626Z,91.19
2017-12-27T08:22:24.563Z,91.10
2017-12-27T08:23:24.501Z,91.19
2017-12-27T08:24:24.435Z,91.57
2017-12-27T08:25:24.373Z,92.05
2017-12-27T08:26:24.306Z,91.10
2017-12-27T08:27:24.244Z,90.91
2017-12-27T08:28:24.179Z,91.95
2017-12-27T08:29:24.114Z,91.76
2017-12-27T08:30:24.049Z,91.67
2017-12-27T08:31:23.988Z,91.95
2017-12-27T08:32:23.922Z,91.76
2017-12-27T08:33:23.857Z,91.76
2017-12-27T08:34:23.793Z,91.67
2017-12-27T08:35:23.728Z,91.76
2017-12-27T08:36:23.664Z,91.00
2017-12-27T08:37:23.603Z,91.86
2017-12-27T08:38:23.553Z,91.67
2017-12-27T08:39:23.472Z,91.76
2017-12-27T08:40:23.410Z,91.76
2017-12-27T08:41:23.346Z,92.33
2017-12-27T08:42:23.280Z,92.43
2017-12-27T08:43:23.216Z,92.61
2017-12-27T08:44:23.152Z,92.33
2017-12-27T08:45:23.089Z,91.76
2017-12-27T08:46:23.024Z,92.43
2017-12-27T08:47:22.961Z,91.76
2017-12-27T08:48:22.900Z,92.61
2017-12-27T08:49:22.834Z,92.43
2017-12-27T08:50:22.772Z,91.86
2017-12-27T08:51:22.705Z,92.33
2017-12-27T08:52:22.641Z,92.80
2017-12-27T08:53:22.578Z,92.71
2017-12-27T08:54:22.512Z,92.33
2017-12-27T08:55:22.449Z,92.80
2017-12-27T08:56:22.387Z,91.86
2017-12-27T08:57:22.320Z,92.71
2017-12-27T08:58:22.256Z,92.61
2017-12-27T08:59:22.196Z,92.33
2017-12-27T09:00:22.129Z,92.52
2017-12-27T09:01:22.066Z,92.71
2017-12-27T09:02:22.001Z,92.43
2017-12-27T09:03:21.939Z,93.08
2017-12-27T09:04:21.876Z,93.56
2017-12-27T09:05:21.810Z,92.90
2017-12-27T09:06:21.748Z,93.56
2017-12-27T09:07:21.683Z,93.56
2017-12-27T09:08:21.619Z,93.46
2017-12-27T09:09:21.555Z,93.37
2017-12-27T09:10:21.541Z,93.46
2017-12-27T09:11:21.439Z,93.08
2017-12-27T09:12:21.363Z,93.56
2017-12-27T09:13:21.300Z,93.56
2017-12-27T09:14:21.236Z,93.27
2017-12-27T09:15:21.173Z,93.46
2017-12-27T09:16:21.115Z,93.46
2017-12-27T09:17:21.044Z,93.46
2017-12-27T09:18:20.982Z,94.23
2017-12-27T09:19:20.924Z,94.23
2017-12-27T09:20:20.852Z,94.04
2017-12-27T09:21:20.791Z,93.84
2017-12-27T09:22:20.728Z,93.37
2017-12-27T09:23:20.662Z,93.75
2017-12-27T09:24:20.598Z,93.46
2017-12-27T09:25:20.534Z,93.56
2017-12-27T09:26:20.471Z,93.46
2017-12-27T09:27:20.409Z,93.37
2017-12-27T09:28:20.345Z,93.37
2017-12-27T09:29:20.287Z,93.37
2017-12-27T09:30:20.215Z,93.65
2017-12-27T09:31:20.151Z,94.23
2017-12-27T09:32:20.094Z,93.75
2017-12-27T09:33:20.027Z,93.84
2017-12-27T09:34:19.962Z,93.75
2017-12-27T09:35:19.899Z,93.65
2017-12-27T09:36:19.836Z,94.04
2017-12-27T09:37:19.769Z,93.56
2017-12-27T09:38:19.706Z,92.80
2017-12-27T09:39:19.643Z,92.99
2017-12-27T09:40:19.579Z,92.99
2017-12-27T09:41:19.515Z,92.80
2017-12-27T09:42:19.450Z,93.04
2017-12-27T09:43:19.388Z,93.08
2017-12-27T09:44:19.325Z,93.13
2017-12-27T09:45:19.268Z,93.04
2017-12-27T09:46:19.196Z,92.99
2017-12-27T09:47:19.132Z,93.18
2017-12-27T09:48:19.071Z,92.99
2017-12-27T09:49:19.007Z,93.37
2017-12-27T09:50:18.941Z,93.56
2017-12-27T09:51:18.880Z,93.18
2017-12-27T09:52:18.822Z,93.46
2017-12-27T09:53:18.750Z,94.04
2017-12-27T09:54:18.688Z,93.65
2017-12-27T09:55:18.624Z,93.84
2017-12-27T09:56:18.566Z,93.56
2017-12-27T09:57:18.500Z,93.75
2017-12-27T09:58:18.433Z,93.94
2017-12-27T09:59:18.374Z,93.94
2017-12-27T10:00:18.305Z,94.04
2017-12-27T10:01:18.247Z,93.94
2017-12-27T10:02:18.182Z,93.75
2017-12-27T10:03:18.115Z,94.13
2017-12-27T10:04:18.052Z,93.75
2017-12-27T10:05:17.989Z,93.37
2017-12-27T10:06:17.926Z,93.65
2017-12-27T10:07:17.863Z,93.37
2017-12-27T10:08:17.798Z,93.13
2017-12-27T10:09:17.737Z,93.08
2017-12-27T10:10:17.670Z,93.32
2017-12-27T10:11:17.607Z,92.47
2017-12-27T10:12:17.542Z,92.71
2017-12-27T10:13:17.480Z,92.76
2017-12-27T10:14:17.418Z,92.52
2017-12-27T10:15:17.352Z,93.13
2017-12-27T10:16:17.289Z,92.80
2017-12-27T10:17:17.224Z,92.76
2017-12-27T10:18:17.161Z,92.57
2017-12-27T10:19:17.101Z,92.94
2017-12-27T10:20:17.036Z,92.52
2017-12-27T10:21:16.970Z,93.27
2017-12-27T10:22:16.907Z,93.23
2017-12-27T10:23:16.846Z,92.94
2017-12-27T10:24:16.782Z,92.09
2017-12-27T10:25:16.716Z,92.57
2017-12-27T10:26:16.652Z,93.32
2017-12-27T10:27:16.590Z,92.38
2017-12-27T10:28:16.529Z,92.61
2017-12-27T10:29:16.464Z,91.95
2017-12-27T10:30:16.401Z,91.52
2017-12-27T10:31:16.336Z,91.05
2017-12-27T10:32:16.275Z,91.05
2017-12-27T10:33:16.230Z,91.24
2017-12-27T10:34:16.144Z,91.43
2017-12-27T10:35:16.082Z,91.81
2017-12-27T10:36:16.021Z,91.43
2017-12-27T10:37:15.954Z,91.52
2017-12-27T10:38:15.892Z,91.05
2017-12-27T10:39:15.828Z,90.67
2017-12-27T10:40:15.765Z,90.39
2017-12-27T10:41:15.705Z,90.67
2017-12-27T10:42:15.639Z,90.39
2017-12-27T10:43:15.574Z,90.29
2017-12-27T10:44:15.509Z,90.39
2017-12-27T10:45:15.449Z,90.20
2017-12-27T10:46:15.383Z,90.20
2017-12-27T10:47:15.321Z,90.29
2017-12-27T10:48:15.260Z,90.29
2017-12-27T10:49:15.194Z,90.67
2017-12-27T10:50:15.134Z,90.58
2017-12-27T10:51:15.070Z,90.01
2017-12-27T10:52:15.006Z,90.29
2017-12-27T10:53:14.944Z,89.72
2017-12-27T10:54:14.877Z,89.82
2017-12-27T10:55:14.815Z,90.01
2017-12-27T10:56:14.752Z,89.91
2017-12-27T10:57:14.688Z,89.63
2017-12-27T10:58:14.624Z,89.25
2017-12-27T10:59:14.564Z,89.44
2017-12-27T11:00:14.500Z,89.34
2017-12-27T11:01:14.438Z,89.06
2017-12-27T11:02:14.375Z,89.25
2017-12-27T11:03:14.311Z,88.87
2017-12-27T11:04:14.247Z,89.06
2017-12-27T11:05:14.184Z,89.25
2017-12-27T11:06:14.122Z,89.53
2017-12-27T11:07:14.059Z,89.34
2017-12-27T11:08:13.994Z,89.25
2017-12-27T11:09:13.932Z,88.87
2017-12-27T11:10:13.875Z,88.59
2017-12-27T11:11:13.806Z,88.59
2017-12-27T11:12:13.744Z,88.49
2017-12-27T11:13:13.681Z,89.06
2017-12-27T11:14:13.617Z,89.44
2017-12-27T11:15:13.554Z,89.53
2017-12-27T11:16:13.489Z,89.63
2017-12-27T11:17:13.428Z,89.44
2017-12-27T11:18:13.366Z,90.01
2017-12-27T11:19:13.299Z,89.72
2017-12-27T11:20:13.236Z,88.87
2017-12-27T11:21:13.174Z,89.34
2017-12-27T11:22:13.119Z,88.87
2017-12-27T11:23:13.050Z,89.72
2017-12-27T11:24:12.986Z,89.06
2017-12-27T11:25:12.922Z,89.34
2017-12-27T11:26:12.856Z,89.06
2017-12-27T11:27:12.795Z,90.01
2017-12-27T11:28:12.732Z,89.91
2017-12-27T11:29:12.668Z,89.82
2017-12-27T11:30:12.607Z,89.72
2017-12-27T11:31:12.542Z,89.91
2017-12-27T11:32:12.479Z,89.63
2017-12-27T11:33:12.417Z,90.01
2017-12-27T11:34:12.352Z,89.72
2017-12-27T11:35:12.292Z,89.44
2017-12-27T11:36:12.227Z,89.34
2017-12-27T11:37:12.164Z,89.15
2017-12-27T11:38:12.099Z,89.34
2017-12-27T11:39:12.037Z,89.53
2017-12-27T11:40:11.974Z,89.63
2017-12-27T11:41:11.911Z,89.53
2017-12-27T11:42:11.848Z,89.25
2017-12-27T11:43:11.785Z,89.63
2017-12-27T11:44:11.722Z,89.34
2017-12-27T11:45:11.664Z,89.82
2017-12-27T11:46:11.595Z,89.63
2017-12-27T11:47:11.532Z,88.68
2017-12-27T11:48:11.471Z,88.78
2017-12-27T11:49:11.406Z,89.25
2017-12-27T11:50:11.348Z,89.25
2017-12-27T11:51:11.280Z,89.91
2017-12-27T11:52:11.219Z,90.01
2017-12-27T11:53:11.157Z,89.82
2017-12-27T11:54:11.092Z,89.63
2017-12-27T11:55:11.028Z,89.82
2017-12-27T11:56:10.967Z,90.01
2017-12-27T11:57:10.902Z,89.91
2017-12-27T11:58:10.841Z,89.82
2017-12-27T11:59:10.776Z,90.39
2017-12-27T12:00:10.714Z,89.72
2017-12-27T12:01:10.650Z,90.10
2017-12-27T12:02:10.584Z,90.39
2017-12-27T12:03:10.522Z,90.10
2017-12-27T12:04:10.458Z,90.20
2017-12-27T12:05:10.395Z,90.10
2017-12-27T12:06:10.333Z,90.10
2017-12-27T12:07:10.271Z,90.39
2017-12-27T12:08:10.205Z,89.91
2017-12-27T12:09:10.141Z,89.82
2017-12-27T12:10:10.078Z,90.01
2017-12-27T12:11:10.013Z,90.01
2017-12-27T12:12:09.950Z,90.20
2017-12-27T12:13:09.888Z,90.01
2017-12-27T12:14:09.824Z,90.29
2017-12-27T12:15:09.763Z,90.39
2017-12-27T12:16:09.698Z,90.20
2017-12-27T12:17:09.635Z,90.39
2017-12-27T12:18:09.570Z,90.77
2017-12-27T12:19:09.509Z,90.39
2017-12-27T12:20:09.445Z,90.48
2017-12-27T12:21:09.380Z,90.67
2017-12-27T12:22:09.316Z,90.86
2017-12-27T12:23:09.255Z,90.86
2017-12-27T12:24:09.194Z,90.58
2017-12-27T12:25:09.129Z,90.77
2017-12-27T12:26:09.064Z,91.14
2017-12-27T12:27:09.000Z,90.95
2017-12-27T12:28:08.936Z,90.43
2017-12-27T12:29:08.877Z,90.39
2017-12-27T12:30:08.811Z,90.86
2017-12-27T12:31:08.747Z,90.86
2017-12-27T12:32:08.684Z,90.43
2017-12-27T12:33:08.624Z,90.43
2017-12-27T12:34:08.556Z,90.62
2017-12-27T12:35:08.494Z,90.58
2017-12-27T12:36:08.430Z,90.67
2017-12-27T12:37:08.368Z,91.14
2017-12-27T12:38:08.304Z,91.14
2017-12-27T12:39:08.242Z,91.43
2017-12-27T12:40:08.179Z,91.76
2017-12-27T12:41:08.115Z,91.19
2017-12-27T12:42:08.050Z,91.00
2017-12-27T12:43:07.988Z,91.19
2017-12-27T12:44:07.926Z,91.28
2017-12-27T12:45:07.862Z,91.28
2017-12-27T12:46:07.798Z,91.57
2017-12-27T12:47:07.736Z,91.38
2017-12-27T12:48:07.672Z,91.09
2017-12-27T12:49:07.612Z,91.19
2017-12-27T12:50:07.551Z,91.19
2017-12-27T12:51:07.484Z,91.38
2017-12-27T12:52:07.420Z,91.47